SAS926 KIAD-EKCH
Flight info
| Callsign | SAS926 |
|---|---|
| Flight time | N/A |
| Altitude | 37000 |
| Route | JCOBY4 SWANN DCT BROSS Q419 RBV Q22 FOXWD DCT WITCH DCT ALLEX N431B ELSIR/M082F390 DCT 50N050W 52N040W 54N030W 56N020W DCT PIKIL DCT SOVED/N0471F390 DCT IBROD DCT OKPAL DCT ELSAN DCT VAXIT DCT TESPI |
| Aircraft | A343/H-SDE2E3FGHIJ4J5M1RWXY/LB1D1 |
Departure
| Time | N/A |
|---|---|
| Airport | Washington Dulles International Airport (KIAD) |
Arrival
| Time | 2026-04-26 22:54 |
|---|---|
| Airport | Copenhagen Kastrup Airport (EKCH) |
| Time | Latitude | Longitude | Altitude | Speed | Heading |
|---|---|---|---|---|---|
| 2026-04-26 22:14 | 56.49336 | 5.47139 | 39334 ft | 506 kts | 99° |
| 2026-04-26 22:14 | 56.48745 | 5.53327 | 39334 ft | 506 kts | 99° |
| 2026-04-26 22:14 | 56.47533 | 5.65877 | 39334 ft | 506 kts | 99° |
| 2026-04-26 22:15 | 56.46307 | 5.78431 | 39353 ft | 506 kts | 99° |
| 2026-04-26 22:15 | 56.45070 | 5.90949 | 39339 ft | 504 kts | 99° |
| 2026-04-26 22:16 | 56.43831 | 6.03357 | 39336 ft | 504 kts | 99° |
| 2026-04-26 22:16 | 56.42572 | 6.15829 | 39328 ft | 504 kts | 99° |
| 2026-04-26 22:17 | 56.41299 | 6.28308 | 39328 ft | 504 kts | 99° |
| 2026-04-26 22:17 | 56.40011 | 6.40795 | 39332 ft | 505 kts | 99° |
| 2026-04-26 22:18 | 56.38721 | 6.53177 | 39329 ft | 504 kts | 99° |
| 2026-04-26 22:18 | 56.37412 | 6.65621 | 39327 ft | 504 kts | 99° |
| 2026-04-26 22:19 | 56.36090 | 6.78056 | 39324 ft | 504 kts | 100° |
| 2026-04-26 22:19 | 56.34757 | 6.90477 | 39330 ft | 504 kts | 100° |
| 2026-04-26 22:20 | 56.33640 | 7.00784 | 39327 ft | 503 kts | 100° |
| 2026-04-26 22:20 | 56.32064 | 7.15184 | 39319 ft | 503 kts | 100° |
| 2026-04-26 22:21 | 56.30695 | 7.27557 | 39321 ft | 503 kts | 100° |
| 2026-04-26 22:21 | 56.29313 | 7.39935 | 39322 ft | 503 kts | 100° |
| 2026-04-26 22:22 | 56.27919 | 7.52300 | 39322 ft | 504 kts | 100° |
| 2026-04-26 22:22 | 56.26517 | 7.64620 | 39315 ft | 506 kts | 100° |
| 2026-04-26 22:23 | 56.25090 | 7.77039 | 39312 ft | 506 kts | 101° |
| 2026-04-26 22:23 | 56.23649 | 7.89458 | 39310 ft | 506 kts | 101° |
| 2026-04-26 22:24 | 56.22206 | 8.01779 | 39315 ft | 506 kts | 101° |
| 2026-04-26 22:24 | 56.20742 | 8.14169 | 39318 ft | 506 kts | 101° |
| 2026-04-26 22:25 | 56.19301 | 8.26254 | 39313 ft | 506 kts | 101° |
| 2026-04-26 22:25 | 56.17814 | 8.38614 | 39320 ft | 506 kts | 101° |
| 2026-04-26 22:26 | 56.16323 | 8.50895 | 39310 ft | 506 kts | 101° |
| 2026-04-26 22:26 | 56.14810 | 8.63243 | 39312 ft | 506 kts | 101° |
| 2026-04-26 22:27 | 56.13286 | 8.75576 | 39312 ft | 506 kts | 101° |
| 2026-04-26 22:27 | 56.11759 | 8.87822 | 39311 ft | 506 kts | 101° |
| 2026-04-26 22:28 | 56.10210 | 9.00134 | 39282 ft | 506 kts | 101° |
| 2026-04-26 22:28 | 56.09430 | 9.06295 | 39063 ft | 505 kts | 101° |
| 2026-04-26 22:28 | 56.08661 | 9.12345 | 38694 ft | 503 kts | 101° |
| 2026-04-26 22:29 | 56.07880 | 9.18462 | 38156 ft | 502 kts | 101° |
| 2026-04-26 22:29 | 56.07096 | 9.24575 | 37519 ft | 504 kts | 101° |
| 2026-04-26 22:29 | 56.06308 | 9.30693 | 36883 ft | 506 kts | 101° |
| 2026-04-26 22:29 | 56.05513 | 9.36842 | 36239 ft | 507 kts | 101° |
| 2026-04-26 22:30 | 56.04712 | 9.43011 | 35485 ft | 511 kts | 101° |
| 2026-04-26 22:30 | 56.04176 | 9.47128 | 34990 ft | 513 kts | 101° |
| 2026-04-26 22:30 | 56.03090 | 9.55422 | 33937 ft | 518 kts | 101° |
| 2026-04-26 22:30 | 56.02532 | 9.59665 | 33340 ft | 519 kts | 101° |
| 2026-04-26 22:31 | 56.01711 | 9.65886 | 32502 ft | 521 kts | 101° |
| 2026-04-26 22:31 | 56.00875 | 9.72195 | 31700 ft | 522 kts | 101° |
| 2026-04-26 22:31 | 56.00032 | 9.78530 | 30909 ft | 523 kts | 101° |
| 2026-04-26 22:31 | 55.99186 | 9.84864 | 30026 ft | 524 kts | 101° |
| 2026-04-26 22:32 | 55.98339 | 9.91173 | 29265 ft | 521 kts | 102° |
| 2026-04-26 22:32 | 55.97492 | 9.97447 | 28660 ft | 515 kts | 102° |
| 2026-04-26 22:32 | 55.96665 | 10.03559 | 28038 ft | 509 kts | 102° |
| 2026-04-26 22:32 | 55.95835 | 10.09660 | 27434 ft | 504 kts | 102° |
| 2026-04-26 22:33 | 55.95007 | 10.15726 | 26832 ft | 499 kts | 102° |
| 2026-04-26 22:33 | 55.93369 | 10.27659 | 25609 ft | 490 kts | 102° |
| 2026-04-26 22:33 | 55.92555 | 10.33556 | 25002 ft | 487 kts | 102° |
| 2026-04-26 22:34 | 55.91757 | 10.39315 | 24411 ft | 483 kts | 102° |
| 2026-04-26 22:34 | 55.90948 | 10.45132 | 23764 ft | 480 kts | 102° |
| 2026-04-26 22:34 | 55.90145 | 10.50887 | 23083 ft | 476 kts | 102° |
| 2026-04-26 22:34 | 55.89361 | 10.56578 | 22591 ft | 468 kts | 100° |
| 2026-04-26 22:35 | 55.88680 | 10.62206 | 22056 ft | 461 kts | 99° |
| 2026-04-26 22:35 | 55.88027 | 10.67769 | 21466 ft | 457 kts | 99° |
| 2026-04-26 22:35 | 55.87380 | 10.73205 | 20816 ft | 454 kts | 99° |
| 2026-04-26 22:35 | 55.86716 | 10.78722 | 20056 ft | 455 kts | 99° |
| 2026-04-26 22:36 | 55.86044 | 10.84236 | 19423 ft | 452 kts | 99° |
| 2026-04-26 22:36 | 55.85374 | 10.89695 | 18811 ft | 449 kts | 99° |
| 2026-04-26 22:36 | 55.84713 | 10.95039 | 18186 ft | 446 kts | 100° |
| 2026-04-26 22:36 | 55.83958 | 11.00377 | 17588 ft | 442 kts | 102° |
| 2026-04-26 22:37 | 55.83161 | 11.05632 | 16998 ft | 437 kts | 102° |
| 2026-04-26 22:37 | 55.82379 | 11.10798 | 16803 ft | 423 kts | 102° |
| 2026-04-26 22:37 | 55.81631 | 11.15763 | 16685 ft | 408 kts | 102° |
| 2026-04-26 22:37 | 55.80910 | 11.20564 | 16568 ft | 394 kts | 102° |
| 2026-04-26 22:38 | 55.80224 | 11.25149 | 16399 ft | 384 kts | 102° |
| 2026-04-26 22:38 | 55.79547 | 11.29670 | 16241 ft | 374 kts | 102° |
| 2026-04-26 22:38 | 55.78883 | 11.34092 | 16075 ft | 365 kts | 102° |
| 2026-04-26 22:38 | 55.78236 | 11.38397 | 15924 ft | 356 kts | 102° |
| 2026-04-26 22:39 | 55.77607 | 11.42618 | 15765 ft | 349 kts | 101° |
| 2026-04-26 22:39 | 55.77165 | 11.46813 | 15515 ft | 343 kts | 94° |
| 2026-04-26 22:39 | 55.76839 | 11.50940 | 15263 ft | 339 kts | 94° |
| 2026-04-26 22:39 | 55.76520 | 11.55088 | 14998 ft | 337 kts | 94° |
| 2026-04-26 22:40 | 55.76200 | 11.59204 | 14733 ft | 335 kts | 94° |
| 2026-04-26 22:40 | 55.75878 | 11.63287 | 14476 ft | 333 kts | 94° |
| 2026-04-26 22:40 | 55.75555 | 11.67355 | 14209 ft | 331 kts | 94° |
| 2026-04-26 22:40 | 55.75231 | 11.71400 | 13905 ft | 330 kts | 94° |
| 2026-04-26 22:41 | 55.74909 | 11.75416 | 13553 ft | 327 kts | 94° |
| 2026-04-26 22:41 | 55.74589 | 11.79411 | 13161 ft | 325 kts | 94° |
| 2026-04-26 22:41 | 55.74273 | 11.83324 | 12801 ft | 323 kts | 94° |
| 2026-04-26 22:41 | 55.73950 | 11.87268 | 12446 ft | 321 kts | 94° |
| 2026-04-26 22:42 | 55.73628 | 11.91182 | 12056 ft | 319 kts | 94° |
| 2026-04-26 22:42 | 55.73308 | 11.95068 | 11692 ft | 317 kts | 94° |
| 2026-04-26 22:42 | 55.72989 | 11.98927 | 11339 ft | 315 kts | 94° |
| 2026-04-26 22:42 | 55.72674 | 12.02763 | 10981 ft | 313 kts | 94° |
| 2026-04-26 22:43 | 55.72359 | 12.06566 | 10632 ft | 310 kts | 94° |
| 2026-04-26 22:43 | 55.72042 | 12.10339 | 10279 ft | 307 kts | 95° |
| 2026-04-26 22:43 | 55.71728 | 12.14056 | 9703 ft | 302 kts | 95° |
| 2026-04-26 22:43 | 55.71418 | 12.17730 | 9007 ft | 299 kts | 95° |
| 2026-04-26 22:44 | 55.71074 | 12.21305 | 8336 ft | 297 kts | 101° |
| 2026-04-26 22:44 | 55.70204 | 12.24600 | 7652 ft | 297 kts | 128° |
| 2026-04-26 22:44 | 55.68748 | 12.27166 | 7086 ft | 292 kts | 139° |
| 2026-04-26 22:44 | 55.67206 | 12.29483 | 6672 ft | 290 kts | 140° |
| 2026-04-26 22:45 | 55.65670 | 12.31767 | 6291 ft | 287 kts | 140° |
| 2026-04-26 22:45 | 55.64152 | 12.34038 | 5915 ft | 283 kts | 140° |
| 2026-04-26 22:45 | 55.62637 | 12.36257 | 5596 ft | 280 kts | 144° |
| 2026-04-26 22:45 | 55.60938 | 12.37719 | 5384 ft | 271 kts | 169° |
| 2026-04-26 22:46 | 55.59112 | 12.37727 | 5242 ft | 257 kts | 197° |
| 2026-04-26 22:46 | 55.57554 | 12.36394 | 5109 ft | 243 kts | 220° |
| 2026-04-26 22:46 | 55.56277 | 12.34516 | 5013 ft | 234 kts | 224° |
| 2026-04-26 22:46 | 55.55077 | 12.32642 | 4885 ft | 227 kts | 224° |
| 2026-04-26 22:47 | 55.53919 | 12.30841 | 4707 ft | 222 kts | 224° |
| 2026-04-26 22:47 | 55.52766 | 12.29054 | 4527 ft | 218 kts | 224° |
| 2026-04-26 22:47 | 55.51637 | 12.27323 | 4391 ft | 213 kts | 221° |
| 2026-04-26 22:47 | 55.50318 | 12.26219 | 4224 ft | 211 kts | 190° |
| 2026-04-26 22:48 | 55.48895 | 12.26610 | 4102 ft | 206 kts | 154° |
| 2026-04-26 22:48 | 55.47851 | 12.28229 | 3982 ft | 204 kts | 129° |
| 2026-04-26 22:48 | 55.47007 | 12.30255 | 3842 ft | 206 kts | 125° |
| 2026-04-26 22:48 | 55.46190 | 12.32334 | 3689 ft | 207 kts | 125° |
| 2026-04-26 22:49 | 55.45369 | 12.34431 | 3535 ft | 207 kts | 125° |
| 2026-04-26 22:49 | 55.44810 | 12.36743 | 3358 ft | 208 kts | 92° |
| 2026-04-26 22:49 | 55.45228 | 12.39047 | 3226 ft | 199 kts | 48° |
| 2026-04-26 22:49 | 55.46251 | 12.40634 | 3058 ft | 195 kts | 32° |
| 2026-04-26 22:50 | 55.47333 | 12.42070 | 3002 ft | 193 kts | 34° |
| 2026-04-26 22:50 | 55.48315 | 12.43540 | 2943 ft | 178 kts | 38° |
| 2026-04-26 22:50 | 55.49224 | 12.44969 | 2727 ft | 172 kts | 37° |
| 2026-04-26 22:50 | 55.50120 | 12.46340 | 2480 ft | 168 kts | 37° |
| 2026-04-26 22:51 | 55.50974 | 12.47652 | 2237 ft | 160 kts | 37° |
| 2026-04-26 22:51 | 55.51771 | 12.48882 | 2036 ft | 146 kts | 37° |
| 2026-04-26 22:51 | 55.52503 | 12.50011 | 1835 ft | 134 kts | 37° |
| 2026-04-26 22:51 | 55.53191 | 12.51068 | 1653 ft | 130 kts | 36° |
| 2026-04-26 22:52 | 55.53882 | 12.52138 | 1433 ft | 135 kts | 37° |
| 2026-04-26 22:52 | 55.54580 | 12.53245 | 1265 ft | 137 kts | 37° |
| 2026-04-26 22:52 | 55.55291 | 12.54367 | 1089 ft | 137 kts | 34° |
| 2026-04-26 22:52 | 55.56023 | 12.55456 | 912 ft | 137 kts | 35° |
| 2026-04-26 22:53 | 55.56749 | 12.56563 | 700 ft | 138 kts | 37° |
| 2026-04-26 22:53 | 55.57473 | 12.57659 | 494 ft | 137 kts | 38° |
| 2026-04-26 22:53 | 55.58174 | 12.58734 | 323 ft | 129 kts | 41° |
| 2026-04-26 22:53 | 55.58832 | 12.59748 | 160 ft | 123 kts | 40° |
| 2026-04-26 22:54 | 55.59464 | 12.60726 | 31 ft | 113 kts | 41° |
| 2026-04-26 22:54 | 55.59916 | 12.61421 | 27 ft | 61 kts | 41° |
| 2026-04-26 22:54 | 55.60207 | 12.61872 | 28 ft | 53 kts | 41° |
| 2026-04-26 22:54 | 55.60432 | 12.62209 | 29 ft | 26 kts | 34° |
| 2026-04-26 22:55 | 55.60580 | 12.62324 | 30 ft | 23 kts | 15° |
| 2026-04-26 22:55 | 55.60737 | 12.62383 | 28 ft | 19 kts | 12° |
| 2026-04-26 22:55 | 55.60845 | 12.62475 | 28 ft | 18 kts | 36° |
| 2026-04-26 22:55 | 55.60935 | 12.62621 | 28 ft | 18 kts | 42° |
| 2026-04-26 22:56 | 55.61020 | 12.62752 | 28 ft | 11 kts | 40° |
| 2026-04-26 22:56 | 55.61082 | 12.62847 | 28 ft | 12 kts | 40° |
| 2026-04-26 22:56 | 55.61150 | 12.62953 | 28 ft | 14 kts | 41° |